createdAt,value
2018-09-10T00:00:48.008Z,0.80
2018-09-10T00:03:17.072Z,1.30
2018-09-10T00:05:46.343Z,1.30
2018-09-10T00:08:15.680Z,0.80
2018-09-10T00:10:44.896Z,2.60
2018-09-10T00:13:14.412Z,1.10
2018-09-10T00:15:43.584Z,0.80
2018-09-10T00:18:12.832Z,0.93
2018-09-10T00:20:42.158Z,1.67
2018-09-10T00:23:11.273Z,2.98
2018-09-10T00:25:40.329Z,1.30
2018-09-10T00:28:09.961Z,1.50
2018-09-10T00:30:39.060Z,0.73
2018-09-10T00:33:08.295Z,2.47
2018-09-10T00:35:37.486Z,1.27
2018-09-10T00:38:06.829Z,2.30
2018-09-10T00:40:36.110Z,1.12
2018-09-10T00:43:05.257Z,2.50
2018-09-10T00:45:34.419Z,1.07
2018-09-10T00:48:03.769Z,1.02
2018-09-10T00:50:33.248Z,1.95
2018-09-10T00:53:02.288Z,1.97
2018-09-10T00:55:34.449Z,1.60
2018-09-10T00:58:03.887Z,1.15
2018-09-10T01:00:33.206Z,1.20
2018-09-10T01:03:02.627Z,0.97
2018-09-10T01:05:31.881Z,1.02
2018-09-10T01:08:01.142Z,1.47
2018-09-10T01:10:30.413Z,1.87
2018-09-10T01:13:00.168Z,1.40
2018-09-10T01:15:29.447Z,0.90
2018-09-10T01:17:59.372Z,1.00
2018-09-10T01:20:28.925Z,0.90
2018-09-10T01:22:58.585Z,1.10
2018-09-10T01:25:27.803Z,0.95
2018-09-10T01:27:57.339Z,1.20
2018-09-10T01:30:26.692Z,1.00
2018-09-10T01:32:56.037Z,1.37
2018-09-10T01:35:25.544Z,0.98
2018-09-10T01:37:55.017Z,0.80
2018-09-10T01:40:24.311Z,1.00
2018-09-10T01:42:53.749Z,2.83
2018-09-10T01:45:23.098Z,1.50
2018-09-10T01:47:52.610Z,0.80
2018-09-10T01:50:22.475Z,2.30
2018-09-10T01:52:51.941Z,2.10
2018-09-10T01:55:21.571Z,1.10
2018-09-10T01:57:51.269Z,1.00
2018-09-10T02:00:20.909Z,1.40
2018-09-10T02:02:50.330Z,1.10
2018-09-10T02:05:19.671Z,1.70
2018-09-10T02:07:49.137Z,0.75
2018-09-10T02:10:18.449Z,1.50
2018-09-10T02:12:47.660Z,1.77
2018-09-10T02:15:16.864Z,1.02
2018-09-10T02:17:46.188Z,1.17
2018-09-10T02:20:15.400Z,1.30
2018-09-10T02:22:44.704Z,0.80
2018-09-10T02:25:13.916Z,2.20
2018-09-10T02:27:43.123Z,1.00
2018-09-10T02:30:12.341Z,1.20
2018-09-10T02:32:41.508Z,1.20
2018-09-10T02:35:10.667Z,1.65
2018-09-10T02:37:39.800Z,1.25
2018-09-10T02:40:08.976Z,1.98
2018-09-10T02:42:38.597Z,0.95
2018-09-10T02:45:07.860Z,1.75
2018-09-10T02:47:37.016Z,0.90
2018-09-10T02:50:06.699Z,1.40
2018-09-10T02:52:35.956Z,1.50
2018-09-10T02:55:05.349Z,1.47
2018-09-10T02:57:34.872Z,2.70
2018-09-10T03:00:04.186Z,2.30
2018-09-10T03:02:33.414Z,1.50
2018-09-10T03:05:02.689Z,2.70
2018-09-10T03:07:32.336Z,1.50
2018-09-10T03:10:01.565Z,1.15
2018-09-10T03:12:30.964Z,1.60
2018-09-10T03:15:00.507Z,1.55
2018-09-10T03:17:30.104Z,1.40
2018-09-10T03:19:59.325Z,0.90
2018-09-10T03:22:28.746Z,1.95
2018-09-10T03:24:58.129Z,1.35
2018-09-10T03:27:27.649Z,1.87
2018-09-10T03:29:57.113Z,2.42
2018-09-10T03:32:26.389Z,1.60
2018-09-10T03:34:55.796Z,1.40
2018-09-10T03:37:25.612Z,1.82
2018-09-10T03:39:55.044Z,2.50
2018-09-10T03:42:24.470Z,2.37
2018-09-10T03:44:53.713Z,3.50
2018-09-10T03:47:23.406Z,2.95
2018-09-10T03:49:52.893Z,1.95
2018-09-10T03:52:22.362Z,1.55
2018-09-10T03:54:51.936Z,1.35
2018-09-10T03:57:21.684Z,2.40
2018-09-10T03:59:50.984Z,1.52
2018-09-10T04:02:20.401Z,2.22
2018-09-10T04:04:49.563Z,1.42
2018-09-10T04:07:18.925Z,1.83
2018-09-10T04:09:48.109Z,1.90
2018-09-10T04:12:17.399Z,2.00
2018-09-10T04:14:46.616Z,1.22
2018-09-10T04:17:15.887Z,1.20
2018-09-10T04:19:45.053Z,1.50
2018-09-10T04:22:14.228Z,3.45
2018-09-10T04:24:43.482Z,1.20
2018-09-10T04:27:12.648Z,3.10
2018-09-10T04:29:42.001Z,3.00
2018-09-10T04:32:11.208Z,2.37
2018-09-10T04:34:40.388Z,2.60
2018-09-10T04:37:09.602Z,1.37
2018-09-10T04:39:38.942Z,1.13
2018-09-10T04:42:08.013Z,3.72
2018-09-10T04:44:37.264Z,1.80
2018-09-10T04:47:06.428Z,4.12
2018-09-10T04:49:35.795Z,1.77
2018-09-10T04:52:04.981Z,1.30
2018-09-10T04:54:34.100Z,2.58
2018-09-10T04:57:03.284Z,1.82
2018-09-10T04:59:32.632Z,1.90
2018-09-10T05:02:02.017Z,1.73
2018-09-10T05:04:31.372Z,2.75
2018-09-10T05:07:00.561Z,4.33
2018-09-10T05:09:29.868Z,2.03
2018-09-10T05:11:59.148Z,2.95
2018-09-10T05:14:28.606Z,1.50
2018-09-10T05:16:57.908Z,3.10
2018-09-10T05:19:27.305Z,2.90
2018-09-10T05:21:56.775Z,2.10
2018-09-10T05:24:26.059Z,1.42
2018-09-10T05:26:55.232Z,2.87
2018-09-10T05:29:24.656Z,2.55
2018-09-10T05:31:54.331Z,2.77
2018-09-10T05:34:23.628Z,2.55
2018-09-10T05:36:53.018Z,1.73
2018-09-10T05:39:22.639Z,2.27
2018-09-10T05:41:52.289Z,1.33
2018-09-10T05:44:22.042Z,3.42
2018-09-10T05:46:51.497Z,2.65
2018-09-10T05:49:20.976Z,2.77
2018-09-10T05:51:50.202Z,2.27
2018-09-10T05:54:19.480Z,5.00
2018-09-10T05:56:49.003Z,2.42
2018-09-10T05:59:18.138Z,3.60
2018-09-10T06:01:47.372Z,4.25
2018-09-10T06:04:16.665Z,4.03
2018-09-10T06:06:45.908Z,2.62
2018-09-10T06:09:15.072Z,4.77
2018-09-10T06:11:44.120Z,5.20
2018-09-10T06:14:13.296Z,5.03
2018-09-10T06:16:42.574Z,4.90
2018-09-10T06:19:11.715Z,5.03
2018-09-10T06:21:40.960Z,4.45
2018-09-10T06:24:10.039Z,8.05
2018-09-10T06:26:39.282Z,4.90
2018-09-10T06:29:08.447Z,5.62
2018-09-10T06:31:37.550Z,4.37
2018-09-10T06:34:06.786Z,2.35
2018-09-10T06:36:36.014Z,4.47
2018-09-10T06:39:07.776Z,6.73
2018-09-10T06:41:37.100Z,1.57
2018-09-10T06:44:06.617Z,6.40
2018-09-10T06:46:35.940Z,5.12
2018-09-10T06:49:05.200Z,4.80
2018-09-10T06:51:34.257Z,6.70
2018-09-10T06:54:03.415Z,5.62
2018-09-10T06:56:32.641Z,4.95
2018-09-10T06:59:01.876Z,2.17
2018-09-10T07:01:31.263Z,6.25
2018-09-10T07:04:00.516Z,4.33
2018-09-10T07:06:29.733Z,4.15
2018-09-10T07:08:58.920Z,4.65
2018-09-10T07:11:28.448Z,6.05
2018-09-10T07:13:57.784Z,6.95
2018-09-10T07:16:27.084Z,8.08
2018-09-10T07:18:56.388Z,5.40
2018-09-10T07:21:25.614Z,6.80
2018-09-10T07:23:54.884Z,5.83
2018-09-10T07:26:24.210Z,4.78
2018-09-10T07:28:53.745Z,8.10
2018-09-10T07:31:23.286Z,4.05
2018-09-10T07:33:52.812Z,7.95
2018-09-10T07:36:22.568Z,8.95
2018-09-10T07:38:52.154Z,6.27
2018-09-10T07:41:21.456Z,8.30
2018-09-10T07:43:50.938Z,5.47
2018-09-10T07:46:20.087Z,9.53
2018-09-10T07:48:49.204Z,10.32
2018-09-10T07:51:18.577Z,8.60
2018-09-10T07:53:48.969Z,12.13
2018-09-10T07:56:18.077Z,8.85
2018-09-10T07:58:47.337Z,9.83
2018-09-10T08:01:16.513Z,7.70
2018-09-10T08:03:45.921Z,9.90
2018-09-10T08:06:15.166Z,8.10
2018-09-10T08:08:44.240Z,7.37
2018-09-10T08:11:13.656Z,5.60
2018-09-10T08:13:42.852Z,9.98
2018-09-10T08:16:12.209Z,8.63
2018-09-10T08:18:41.381Z,10.78
2018-09-10T08:21:10.620Z,9.10
2018-09-10T08:23:39.807Z,8.30
2018-09-10T08:26:09.256Z,8.60
2018-09-10T08:28:38.403Z,7.40
2018-09-10T08:31:07.676Z,10.95
2018-09-10T08:33:36.993Z,16.12
2018-09-10T08:36:06.408Z,10.65
2018-09-10T08:38:35.636Z,11.73
2018-09-10T08:41:04.805Z,11.38
2018-09-10T08:43:34.109Z,13.75
2018-09-10T08:46:03.343Z,7.35
2018-09-10T08:48:32.412Z,13.17
2018-09-10T08:51:01.744Z,7.33
2018-09-10T08:53:31.044Z,7.75
2018-09-10T08:56:00.351Z,13.68
2018-09-10T08:58:29.463Z,8.18
2018-09-10T09:00:58.695Z,9.97
2018-09-10T09:03:28.144Z,6.12
2018-09-10T09:05:57.599Z,7.65
2018-09-10T09:08:27.025Z,8.23
2018-09-10T09:10:56.445Z,7.60
2018-09-10T09:13:26.095Z,9.05
2018-09-10T09:15:55.352Z,8.55
2018-09-10T09:18:24.751Z,9.40
2018-09-10T09:20:54.643Z,10.57
2018-09-10T09:23:24.262Z,9.53
2018-09-10T09:25:53.725Z,13.45
2018-09-10T09:28:23.217Z,14.63
2018-09-10T09:30:52.845Z,10.23
2018-09-10T09:33:22.420Z,10.43
2018-09-10T09:35:57.121Z,10.10
2018-09-10T09:38:31.472Z,7.87
2018-09-10T09:41:05.839Z,4.60
2018-09-10T09:43:40.200Z,4.03
2018-09-10T09:46:11.932Z,5.55
2018-09-10T09:48:41.141Z,7.97
2018-09-10T09:51:10.340Z,4.42
2018-09-10T09:53:39.664Z,5.03
2018-09-10T09:56:08.841Z,3.80
2018-09-10T09:58:38.088Z,5.15
2018-09-10T10:01:12.264Z,2.98
2018-09-10T10:03:46.472Z,5.65
2018-09-10T10:06:15.616Z,3.58
2018-09-10T10:08:44.981Z,3.42
2018-09-10T10:11:14.292Z,4.35
2018-09-10T10:13:43.589Z,5.97
2018-09-10T10:16:12.754Z,3.58
2018-09-10T10:18:41.900Z,3.20
2018-09-10T10:21:11.081Z,5.90
2018-09-10T10:23:40.388Z,4.30
2018-09-10T10:26:09.617Z,2.77
2018-09-10T10:28:38.829Z,3.90
2018-09-10T10:31:08.233Z,6.15
2018-09-10T10:33:37.480Z,3.02
2018-09-10T10:36:06.649Z,4.92
2018-09-10T10:38:35.688Z,3.77
2018-09-10T10:41:04.752Z,4.13
2018-09-10T10:43:34.190Z,3.30
2018-09-10T10:46:03.276Z,2.50
2018-09-10T10:48:32.528Z,3.47
2018-09-10T10:51:01.709Z,3.52
2018-09-10T10:53:31.160Z,2.27
2018-09-10T10:56:00.328Z,2.37
2018-09-10T10:58:29.586Z,4.10
2018-09-10T11:00:58.747Z,2.60
2018-09-10T11:03:27.997Z,2.20
2018-09-10T11:05:57.423Z,3.30
2018-09-10T11:08:26.743Z,3.95
2018-09-10T11:10:56.082Z,2.75
2018-09-10T11:13:25.553Z,4.25
2018-09-10T11:15:54.861Z,3.67
2018-09-10T11:18:24.297Z,2.80
2018-09-10T11:20:53.575Z,3.10
2018-09-10T11:23:23.040Z,2.30
2018-09-10T11:25:52.423Z,3.52
2018-09-10T11:28:22.070Z,3.30
2018-09-10T11:30:51.568Z,2.20
2018-09-10T11:33:20.802Z,2.70
2018-09-10T11:35:50.107Z,4.87
2018-09-10T11:38:19.333Z,2.00
2018-09-10T11:40:48.617Z,3.08
2018-09-10T11:43:17.829Z,2.52
2018-09-10T11:45:47.025Z,2.53
2018-09-10T11:48:16.089Z,2.35
2018-09-10T11:50:45.133Z,3.15
2018-09-10T11:53:14.327Z,3.75
2018-09-10T11:55:43.703Z,2.08
2018-09-10T11:58:13.241Z,1.27
2018-09-10T12:00:42.764Z,2.10
2018-09-10T12:03:12.196Z,4.53
2018-09-10T12:05:41.845Z,2.43
2018-09-10T12:08:11.240Z,3.05
2018-09-10T12:10:40.508Z,2.97
2018-09-10T12:13:10.182Z,5.12
2018-09-10T12:15:39.516Z,3.10
2018-09-10T12:18:08.678Z,2.55
2018-09-10T12:20:38.117Z,3.02
2018-09-10T12:23:07.510Z,4.12
2018-09-10T12:25:36.844Z,4.23
2018-09-10T12:28:06.325Z,3.30
2018-09-10T12:30:35.577Z,3.62
2018-09-10T12:33:04.854Z,4.47
2018-09-10T12:35:34.189Z,3.80
2018-09-10T12:38:03.385Z,2.17
2018-09-10T12:40:32.619Z,4.37
2018-09-10T12:43:01.782Z,4.47
2018-09-10T12:45:31.032Z,3.23
2018-09-10T12:48:00.206Z,4.50
2018-09-10T12:50:29.568Z,4.17
2018-09-10T12:52:58.976Z,2.62
2018-09-10T12:55:28.212Z,2.23
2018-09-10T12:57:57.359Z,3.60
2018-09-10T13:00:26.816Z,2.02
2018-09-10T13:02:56.117Z,3.08
2018-09-10T13:05:25.363Z,4.30
2018-09-10T13:07:54.813Z,5.00
2018-09-10T13:10:24.269Z,3.45
2018-09-10T13:12:53.433Z,3.63
2018-09-10T13:15:23.099Z,2.30
2018-09-10T13:17:52.288Z,3.15
2018-09-10T13:20:21.726Z,1.47
2018-09-10T13:22:51.636Z,3.37
2018-09-10T13:25:20.838Z,2.17
2018-09-10T13:27:50.288Z,5.12
2018-09-10T13:30:19.540Z,3.80
2018-09-10T13:32:48.788Z,2.03
2018-09-10T13:35:17.973Z,2.22
2018-09-10T13:37:47.213Z,3.02
2018-09-10T13:40:16.359Z,3.27
2018-09-10T13:42:45.736Z,6.35
2018-09-10T13:45:14.909Z,4.97
2018-09-10T13:47:44.054Z,3.65
2018-09-10T13:50:13.475Z,3.90
2018-09-10T13:52:42.573Z,2.98
2018-09-10T13:55:11.952Z,2.62
2018-09-10T13:57:41.300Z,2.72
2018-09-10T14:00:10.673Z,3.92
2018-09-10T14:02:39.928Z,2.45
2018-09-10T14:05:09.208Z,4.00
2018-09-10T14:07:38.340Z,3.75
2018-09-10T14:10:07.516Z,2.20
2018-09-10T14:12:36.849Z,3.75
2018-09-10T14:15:06.245Z,3.37
2018-09-10T14:17:35.496Z,2.98
2018-09-10T14:20:04.874Z,4.25
2018-09-10T14:22:34.024Z,2.42
2018-09-10T14:25:03.288Z,4.10
2018-09-10T14:27:32.435Z,3.55
2018-09-10T14:30:01.609Z,4.75
2018-09-10T14:32:30.754Z,2.85
2018-09-10T14:34:59.948Z,3.58
2018-09-10T14:37:29.197Z,4.12
2018-09-10T14:39:58.665Z,3.13
2018-09-10T14:42:27.872Z,3.47
2018-09-10T14:44:57.184Z,1.95
2018-09-10T14:47:26.431Z,3.77
2018-09-10T14:49:55.700Z,1.90
2018-09-10T14:52:25.314Z,3.83
2018-09-10T14:54:54.550Z,3.27
2018-09-10T14:57:23.796Z,2.90
2018-09-10T14:59:53.073Z,3.37
2018-09-10T15:02:22.524Z,1.70
2018-09-10T15:04:51.698Z,2.08
2018-09-10T15:07:21.042Z,2.20
2018-09-10T15:09:50.100Z,3.33
2018-09-10T15:12:19.148Z,4.75
2018-09-10T15:14:48.348Z,3.00
2018-09-10T15:17:17.456Z,2.27
2018-09-10T15:19:46.736Z,2.20
2018-09-10T15:22:15.993Z,3.27
2018-09-10T15:24:45.165Z,4.57
2018-09-10T15:27:14.305Z,2.90
2018-09-10T15:29:43.380Z,3.05
2018-09-10T15:32:12.612Z,3.65
2018-09-10T15:34:41.859Z,3.42
2018-09-10T15:37:11.148Z,3.27
2018-09-10T15:39:40.314Z,4.42
2018-09-10T15:42:09.460Z,4.33
2018-09-10T15:44:38.632Z,2.25
2018-09-10T15:47:07.892Z,2.22
2018-09-10T15:49:37.093Z,2.58
2018-09-10T15:52:06.503Z,3.70
2018-09-10T15:54:35.793Z,4.20
2018-09-10T15:57:05.179Z,3.37
2018-09-10T15:59:34.204Z,3.05
2018-09-10T16:02:03.340Z,2.25
2018-09-10T16:04:32.408Z,2.05
2018-09-10T16:07:01.580Z,2.70
2018-09-10T16:09:30.737Z,3.65
2018-09-10T16:11:59.995Z,3.85
2018-09-10T16:14:29.260Z,3.67
2018-09-10T16:16:58.844Z,3.20
2018-09-10T16:19:28.084Z,3.17
2018-09-10T16:21:57.241Z,4.03
2018-09-10T16:24:26.386Z,4.33
2018-09-10T16:26:55.655Z,3.27
2018-09-10T16:29:24.848Z,5.37
2018-09-10T16:31:54.261Z,3.95
2018-09-10T16:34:23.604Z,3.63
2018-09-10T16:36:53.065Z,4.03
2018-09-10T16:39:22.495Z,2.90
2018-09-10T16:41:51.813Z,3.87
2018-09-10T16:44:20.952Z,3.83
2018-09-10T16:46:50.069Z,4.33
2018-09-10T16:49:19.172Z,1.92
2018-09-10T16:51:48.332Z,3.72
2018-09-10T16:54:17.827Z,3.58
2018-09-10T16:56:46.860Z,4.40
2018-09-10T16:59:16.098Z,3.67
2018-09-10T17:01:45.380Z,3.35
2018-09-10T17:04:14.629Z,2.45
2018-09-10T17:06:43.847Z,3.27
2018-09-10T17:09:13.144Z,2.52
2018-09-10T17:11:42.361Z,3.47
2018-09-10T17:14:11.685Z,4.83
2018-09-10T17:16:41.061Z,3.47
2018-09-10T17:19:10.565Z,2.90
2018-09-10T17:21:39.995Z,3.05
2018-09-10T17:24:09.243Z,4.90
2018-09-10T17:26:38.603Z,2.92
2018-09-10T17:29:07.973Z,3.80
2018-09-10T17:31:37.244Z,4.40
2018-09-10T17:34:06.625Z,4.20
2018-09-10T17:36:35.676Z,4.50
2018-09-10T17:39:06.606Z,3.70
2018-09-10T17:41:36.017Z,4.05
2018-09-10T17:44:05.376Z,3.95
2018-09-10T17:46:34.557Z,2.52
2018-09-10T17:49:03.786Z,4.45
2018-09-10T17:51:32.864Z,3.02
2018-09-10T17:54:02.146Z,3.80
2018-09-10T17:56:31.293Z,3.80
2018-09-10T17:59:00.733Z,5.40
2018-09-10T18:01:30.016Z,2.75
2018-09-10T18:03:59.475Z,4.37
2018-09-10T18:06:28.629Z,2.40
2018-09-10T18:08:57.941Z,4.30
2018-09-10T18:11:27.206Z,3.52
2018-09-10T18:13:56.504Z,6.20
2018-09-10T18:16:26.142Z,1.77
2018-09-10T18:18:55.301Z,4.03
2018-09-10T18:21:24.458Z,4.00
2018-09-10T18:23:53.520Z,3.22
2018-09-10T18:26:23.096Z,4.40
2018-09-10T18:28:52.361Z,5.03
2018-09-10T18:31:21.572Z,4.17
2018-09-10T18:33:50.670Z,3.30
2018-09-10T18:36:19.866Z,5.03
2018-09-10T18:38:49.187Z,2.92
2018-09-10T18:41:18.428Z,4.23
2018-09-10T18:43:47.492Z,3.47
2018-09-10T18:46:16.648Z,4.42
2018-09-10T18:48:45.939Z,4.90
2018-09-10T18:51:15.576Z,4.72
2018-09-10T18:53:44.848Z,4.08
2018-09-10T18:56:14.412Z,4.25
2018-09-10T18:58:43.580Z,4.20
2018-09-10T19:01:12.918Z,4.53
2018-09-10T19:03:42.112Z,5.08
2018-09-10T19:06:11.561Z,2.50
2018-09-10T19:08:40.804Z,3.37
2018-09-10T19:11:10.095Z,3.08
2018-09-10T19:13:39.258Z,3.70
2018-09-10T19:16:08.809Z,2.50
2018-09-10T19:18:37.871Z,5.05
2018-09-10T19:21:07.584Z,3.87
2018-09-10T19:23:37.577Z,4.03
2018-09-10T19:26:07.384Z,2.90
2018-09-10T19:28:36.556Z,2.60
2018-09-10T19:31:05.886Z,4.75
2018-09-10T19:33:35.240Z,3.05
2018-09-10T19:36:04.504Z,4.92
2018-09-10T19:38:33.856Z,3.65
2018-09-10T19:41:03.035Z,3.42
2018-09-10T19:43:32.270Z,4.42
2018-09-10T19:46:01.436Z,3.10
2018-09-10T19:48:31.200Z,3.77
2018-09-10T19:51:00.267Z,4.37
2018-09-10T19:53:29.925Z,5.55
2018-09-10T19:55:59.044Z,4.08
2018-09-10T19:58:28.560Z,3.10
2018-09-10T20:00:57.933Z,4.62
2018-09-10T20:03:27.280Z,4.20
2018-09-10T20:05:56.460Z,2.87
2018-09-10T20:08:25.804Z,4.33
2018-09-10T20:10:55.016Z,3.65
2018-09-10T20:13:24.240Z,4.80
2018-09-10T20:15:53.509Z,6.47
2018-09-10T20:18:22.965Z,4.53
2018-09-10T20:20:52.172Z,4.05
2018-09-10T20:23:21.577Z,4.15
2018-09-10T20:25:51.026Z,4.42
2018-09-10T20:28:20.304Z,4.42
2018-09-10T20:30:49.509Z,3.30
2018-09-10T20:33:18.835Z,4.42
2018-09-10T20:35:47.996Z,3.00
2018-09-10T20:38:17.452Z,2.60
2018-09-10T20:40:46.512Z,4.47
2018-09-10T20:43:15.972Z,2.98
2018-09-10T20:45:45.418Z,3.55
2018-09-10T20:48:14.693Z,2.85
2018-09-10T20:50:43.872Z,2.95
2018-09-10T20:53:13.324Z,3.42
2018-09-10T20:55:42.554Z,2.85
2018-09-10T20:58:11.844Z,3.83
2018-09-10T21:00:41.025Z,4.70
2018-09-10T21:03:10.271Z,3.95
2018-09-10T21:05:39.556Z,2.62
2018-09-10T21:08:08.898Z,3.40
2018-09-10T21:10:38.177Z,3.30
2018-09-10T21:13:07.652Z,5.15
2018-09-10T21:15:36.829Z,3.40
2018-09-10T21:18:06.092Z,3.83
2018-09-10T21:20:35.461Z,4.40
2018-09-10T21:23:05.154Z,3.80
2018-09-10T21:25:34.404Z,3.72
2018-09-10T21:28:03.701Z,3.08
2018-09-10T21:30:32.917Z,5.12
2018-09-10T21:33:02.287Z,5.00
2018-09-10T21:35:31.431Z,5.37
2018-09-10T21:38:00.722Z,4.83
2018-09-10T21:40:30.372Z,3.52
2018-09-10T21:42:59.781Z,4.87
2018-09-10T21:45:29.065Z,2.98
2018-09-10T21:47:58.262Z,4.43
2018-09-10T21:50:27.308Z,4.05
2018-09-10T21:52:56.479Z,3.33
2018-09-10T21:55:25.935Z,3.10
2018-09-10T21:57:55.236Z,2.60
2018-09-10T22:00:24.566Z,2.40
2018-09-10T22:02:53.744Z,3.52
2018-09-10T22:05:23.086Z,4.15
2018-09-10T22:07:52.359Z,2.60
2018-09-10T22:10:21.718Z,4.25
2018-09-10T22:12:51.020Z,3.33
2018-09-10T22:15:20.221Z,3.10
2018-09-10T22:17:49.459Z,3.95
2018-09-10T22:20:18.750Z,3.52
2018-09-10T22:22:48.164Z,4.75
2018-09-10T22:25:17.467Z,4.35
2018-09-10T22:27:46.656Z,3.25
2018-09-10T22:30:16.000Z,3.85
2018-09-10T22:32:45.069Z,2.90
2018-09-10T22:35:14.224Z,5.40
2018-09-10T22:37:43.281Z,6.90
2018-09-10T22:40:12.531Z,3.70
2018-09-10T22:42:41.704Z,5.60
2018-09-10T22:45:11.053Z,2.40
2018-09-10T22:47:40.327Z,6.17
2018-09-10T22:50:09.569Z,4.80
2018-09-10T22:52:38.860Z,4.70
2018-09-10T22:55:08.052Z,4.50
2018-09-10T22:57:37.168Z,4.27
2018-09-10T23:00:07.084Z,3.70
2018-09-10T23:02:36.264Z,3.70
2018-09-10T23:05:05.551Z,4.72
2018-09-10T23:07:34.728Z,4.50
2018-09-10T23:10:04.043Z,3.87
2018-09-10T23:12:33.448Z,3.90
2018-09-10T23:15:02.705Z,3.02
2018-09-10T23:17:32.299Z,1.82
2018-09-10T23:20:01.624Z,2.92
2018-09-10T23:22:30.804Z,4.28
2018-09-10T23:24:59.972Z,5.20
2018-09-10T23:27:29.436Z,1.70
2018-09-10T23:29:58.740Z,3.95
2018-09-10T23:32:28.105Z,2.92
2018-09-10T23:34:57.264Z,2.33
2018-09-10T23:37:26.512Z,4.58
2018-09-10T23:39:55.900Z,4.58
2018-09-10T23:42:25.266Z,3.87
2018-09-10T23:44:54.516Z,3.33
2018-09-10T23:47:24.087Z,3.77
2018-09-10T23:49:53.388Z,5.23
2018-09-10T23:52:22.704Z,5.45
2018-09-10T23:54:51.978Z,4.00
2018-09-10T23:57:21.424Z,5.10
2018-09-10T23:59:50.845Z,3.90
